sensor_id;sensor_type;location;lat;lon;timestamp;P1;durP1;ratioP1;P2;durP2;ratioP2
26620;SDS011;14253;44.840;10.444;2023-04-25T00:02:22;3.42;;;1.38;;
26620;SDS011;14253;44.840;10.444;2023-04-25T00:04:48;8.23;;;1.65;;
26620;SDS011;14253;44.840;10.444;2023-04-25T00:07:14;1.98;;;1.13;;
26620;SDS011;14253;44.840;10.444;2023-04-25T00:09:41;10.93;;;2.97;;
26620;SDS011;14253;44.840;10.444;2023-04-25T00:12:07;2.67;;;1.25;;
26620;SDS011;14253;44.840;10.444;2023-04-25T00:14:33;1.83;;;1.17;;
26620;SDS011;14253;44.840;10.444;2023-04-25T00:16:59;7.55;;;1.55;;
26620;SDS011;14253;44.840;10.444;2023-04-25T00:19:25;3.08;;;1.58;;
26620;SDS011;14253;44.840;10.444;2023-04-25T00:21:56;2.40;;;1.38;;
26620;SDS011;14253;44.840;10.444;2023-04-25T00:24:22;3.75;;;1.30;;
26620;SDS011;14253;44.840;10.444;2023-04-25T00:26:48;3.63;;;1.58;;
26620;SDS011;14253;44.840;10.444;2023-04-25T00:29:14;6.45;;;1.67;;
26620;SDS011;14253;44.840;10.444;2023-04-25T00:31:40;7.53;;;1.63;;
26620;SDS011;14253;44.840;10.444;2023-04-25T00:34:06;3.55;;;1.38;;
26620;SDS011;14253;44.840;10.444;2023-04-25T00:36:34;2.72;;;1.20;;
26620;SDS011;14253;44.840;10.444;2023-04-25T00:39:00;2.33;;;1.50;;
26620;SDS011;14253;44.840;10.444;2023-04-25T00:41:26;1.95;;;1.40;;
26620;SDS011;14253;44.840;10.444;2023-04-25T00:43:53;5.47;;;1.48;;
26620;SDS011;14253;44.840;10.444;2023-04-25T00:46:19;2.38;;;1.73;;
26620;SDS011;14253;44.840;10.444;2023-04-25T00:48:45;3.70;;;1.70;;
26620;SDS011;14253;44.840;10.444;2023-04-25T00:51:15;4.07;;;1.77;;
26620;SDS011;14253;44.840;10.444;2023-04-25T00:53:44;3.03;;;1.80;;
26620;SDS011;14253;44.840;10.444;2023-04-25T00:56:10;4.00;;;1.60;;
26620;SDS011;14253;44.840;10.444;2023-04-25T00:58:36;3.35;;;1.73;;
26620;SDS011;14253;44.840;10.444;2023-04-25T01:01:03;6.40;;;1.65;;
26620;SDS011;14253;44.840;10.444;2023-04-25T01:03:31;3.85;;;1.75;;
26620;SDS011;14253;44.840;10.444;2023-04-25T01:05:58;5.22;;;1.50;;
26620;SDS011;14253;44.840;10.444;2023-04-25T01:08:24;3.55;;;1.95;;
26620;SDS011;14253;44.840;10.444;2023-04-25T01:10:53;3.13;;;1.60;;
26620;SDS011;14253;44.840;10.444;2023-04-25T01:13:19;3.28;;;1.90;;
26620;SDS011;14253;44.840;10.444;2023-04-25T01:15:45;2.70;;;1.70;;
26620;SDS011;14253;44.840;10.444;2023-04-25T01:18:11;3.70;;;1.92;;
26620;SDS011;14253;44.840;10.444;2023-04-25T01:20:37;3.10;;;1.80;;
26620;SDS011;14253;44.840;10.444;2023-04-25T01:23:07;3.53;;;2.00;;
26620;SDS011;14253;44.840;10.444;2023-04-25T01:25:34;4.22;;;1.90;;
26620;SDS011;14253;44.840;10.444;2023-04-25T01:28:00;2.50;;;1.67;;
26620;SDS011;14253;44.840;10.444;2023-04-25T01:30:27;2.60;;;1.90;;
26620;SDS011;14253;44.840;10.444;2023-04-25T01:32:55;2.63;;;1.80;;
26620;SDS011;14253;44.840;10.444;2023-04-25T01:35:22;7.53;;;2.05;;
26620;SDS011;14253;44.840;10.444;2023-04-25T01:37:53;6.03;;;2.00;;
26620;SDS011;14253;44.840;10.444;2023-04-25T01:40:19;4.38;;;1.98;;
26620;SDS011;14253;44.840;10.444;2023-04-25T01:42:46;4.57;;;2.08;;
26620;SDS011;14253;44.840;10.444;2023-04-25T01:45:12;6.95;;;2.42;;
26620;SDS011;14253;44.840;10.444;2023-04-25T01:47:39;5.13;;;2.05;;
26620;SDS011;14253;44.840;10.444;2023-04-25T01:50:05;3.28;;;1.92;;
26620;SDS011;14253;44.840;10.444;2023-04-25T01:52:33;4.65;;;1.90;;
26620;SDS011;14253;44.840;10.444;2023-04-25T01:55:03;2.67;;;1.95;;
26620;SDS011;14253;44.840;10.444;2023-04-25T01:57:32;4.15;;;1.80;;
26620;SDS011;14253;44.840;10.444;2023-04-25T02:00:00;3.25;;;2.20;;
26620;SDS011;14253;44.840;10.444;2023-04-25T02:02:40;5.18;;;2.08;;
26620;SDS011;14253;44.840;10.444;2023-04-25T02:05:16;3.33;;;1.98;;
26620;SDS011;14253;44.840;10.444;2023-04-25T02:07:43;4.40;;;2.60;;
26620;SDS011;14253;44.840;10.444;2023-04-25T02:10:09;5.82;;;2.15;;
26620;SDS011;14253;44.840;10.444;2023-04-25T02:12:43;3.67;;;1.77;;
26620;SDS011;14253;44.840;10.444;2023-04-25T02:15:19;6.90;;;2.40;;
26620;SDS011;14253;44.840;10.444;2023-04-25T02:17:51;3.97;;;1.90;;
26620;SDS011;14253;44.840;10.444;2023-04-25T02:20:21;4.07;;;1.95;;
26620;SDS011;14253;44.840;10.444;2023-04-25T02:22:48;3.65;;;2.10;;
26620;SDS011;14253;44.840;10.444;2023-04-25T02:25:14;3.72;;;2.30;;
26620;SDS011;14253;44.840;10.444;2023-04-25T02:27:41;3.97;;;1.95;;
26620;SDS011;14253;44.840;10.444;2023-04-25T02:30:10;6.95;;;2.33;;
26620;SDS011;14253;44.840;10.444;2023-04-25T02:32:37;4.78;;;2.28;;
26620;SDS011;14253;44.840;10.444;2023-04-25T02:35:03;3.95;;;2.28;;
26620;SDS011;14253;44.840;10.444;2023-04-25T02:37:30;2.90;;;2.22;;
26620;SDS011;14253;44.840;10.444;2023-04-25T02:39:57;4.95;;;2.03;;
26620;SDS011;14253;44.840;10.444;2023-04-25T02:42:23;3.38;;;2.10;;
26620;SDS011;14253;44.840;10.444;2023-04-25T02:44:49;3.80;;;2.15;;
26620;SDS011;14253;44.840;10.444;2023-04-25T02:47:15;4.18;;;2.20;;
26620;SDS011;14253;44.840;10.444;2023-04-25T02:49:42;6.72;;;3.25;;
26620;SDS011;14253;44.840;10.444;2023-04-25T02:52:08;6.25;;;2.20;;
26620;SDS011;14253;44.840;10.444;2023-04-25T02:54:34;6.03;;;2.85;;
26620;SDS011;14253;44.840;10.444;2023-04-25T02:57:02;3.55;;;2.10;;
26620;SDS011;14253;44.840;10.444;2023-04-25T02:59:34;4.70;;;2.17;;
26620;SDS011;14253;44.840;10.444;2023-04-25T03:02:00;4.55;;;2.85;;
26620;SDS011;14253;44.840;10.444;2023-04-25T03:04:28;4.65;;;2.22;;
26620;SDS011;14253;44.840;10.444;2023-04-25T03:06:57;6.40;;;2.30;;
26620;SDS011;14253;44.840;10.444;2023-04-25T03:09:23;4.85;;;2.53;;
26620;SDS011;14253;44.840;10.444;2023-04-25T03:11:50;5.40;;;2.60;;
26620;SDS011;14253;44.840;10.444;2023-04-25T03:14:17;3.78;;;2.53;;
26620;SDS011;14253;44.840;10.444;2023-04-25T03:16:43;2.72;;;2.03;;
26620;SDS011;14253;44.840;10.444;2023-04-25T03:19:09;5.65;;;2.50;;
26620;SDS011;14253;44.840;10.444;2023-04-25T03:21:35;4.40;;;2.55;;
26620;SDS011;14253;44.840;10.444;2023-04-25T03:24:02;6.90;;;2.45;;
26620;SDS011;14253;44.840;10.444;2023-04-25T03:26:30;3.65;;;2.67;;
26620;SDS011;14253;44.840;10.444;2023-04-25T03:28:56;3.97;;;2.53;;
26620;SDS011;14253;44.840;10.444;2023-04-25T03:31:22;9.65;;;2.53;;
26620;SDS011;14253;44.840;10.444;2023-04-25T03:33:48;6.90;;;2.90;;
26620;SDS011;14253;44.840;10.444;2023-04-25T03:36:15;7.93;;;2.78;;
26620;SDS011;14253;44.840;10.444;2023-04-25T03:38:41;5.22;;;1.98;;
26620;SDS011;14253;44.840;10.444;2023-04-25T03:41:08;5.15;;;2.88;;
26620;SDS011;14253;44.840;10.444;2023-04-25T03:43:46;3.95;;;2.20;;
26620;SDS011;14253;44.840;10.444;2023-04-25T03:46:14;5.22;;;2.60;;
26620;SDS011;14253;44.840;10.444;2023-04-25T03:48:40;3.42;;;2.28;;
26620;SDS011;14253;44.840;10.444;2023-04-25T03:51:08;3.00;;;2.28;;
26620;SDS011;14253;44.840;10.444;2023-04-25T03:53:37;3.47;;;2.22;;
26620;SDS011;14253;44.840;10.444;2023-04-25T03:56:24;3.58;;;2.33;;
26620;SDS011;14253;44.840;10.444;2023-04-25T03:58:58;5.22;;;2.30;;
26620;SDS011;14253;44.840;10.444;2023-04-25T04:01:27;5.32;;;2.55;;
26620;SDS011;14253;44.840;10.444;2023-04-25T04:03:52;4.15;;;2.58;;
26620;SDS011;14253;44.840;10.444;2023-04-25T04:06:18;4.03;;;1.95;;
26620;SDS011;14253;44.840;10.444;2023-04-25T04:11:16;3.28;;;2.40;;
26620;SDS011;14253;44.840;10.444;2023-04-25T04:13:42;3.92;;;2.45;;
26620;SDS011;14253;44.840;10.444;2023-04-25T04:16:08;3.90;;;2.47;;
26620;SDS011;14253;44.840;10.444;2023-04-25T04:18:34;7.25;;;3.17;;
26620;SDS011;14253;44.840;10.444;2023-04-25T04:21:01;6.18;;;3.00;;
26620;SDS011;14253;44.840;10.444;2023-04-25T04:23:29;5.25;;;2.88;;
26620;SDS011;14253;44.840;10.444;2023-04-25T04:25:56;4.80;;;2.60;;
26620;SDS011;14253;44.840;10.444;2023-04-25T04:28:28;4.80;;;2.92;;
26620;SDS011;14253;44.840;10.444;2023-04-25T04:31:15;6.38;;;3.50;;
26620;SDS011;14253;44.840;10.444;2023-04-25T04:33:41;8.18;;;3.20;;
26620;SDS011;14253;44.840;10.444;2023-04-25T04:36:07;4.50;;;2.88;;
26620;SDS011;14253;44.840;10.444;2023-04-25T04:38:33;5.70;;;3.50;;
26620;SDS011;14253;44.840;10.444;2023-04-25T04:41:02;5.97;;;3.40;;
26620;SDS011;14253;44.840;10.444;2023-04-25T04:43:46;6.28;;;2.60;;
26620;SDS011;14253;44.840;10.444;2023-04-25T04:46:31;5.20;;;3.50;;
26620;SDS011;14253;44.840;10.444;2023-04-25T04:49:22;5.90;;;3.30;;
26620;SDS011;14253;44.840;10.444;2023-04-25T04:52:14;6.75;;;2.90;;
26620;SDS011;14253;44.840;10.444;2023-04-25T04:55:00;7.10;;;3.22;;
26620;SDS011;14253;44.840;10.444;2023-04-25T04:57:43;4.20;;;2.80;;
26620;SDS011;14253;44.840;10.444;2023-04-25T05:00:32;7.07;;;2.78;;
26620;SDS011;14253;44.840;10.444;2023-04-25T05:03:17;5.82;;;2.67;;
26620;SDS011;14253;44.840;10.444;2023-04-25T05:06:01;5.22;;;3.40;;
26620;SDS011;14253;44.840;10.444;2023-04-25T05:08:50;5.88;;;3.38;;
26620;SDS011;14253;44.840;10.444;2023-04-25T05:11:36;7.20;;;3.22;;
26620;SDS011;14253;44.840;10.444;2023-04-25T05:14:20;8.63;;;3.72;;
26620;SDS011;14253;44.840;10.444;2023-04-25T05:17:01;4.82;;;3.72;;
26620;SDS011;14253;44.840;10.444;2023-04-25T05:19:45;5.70;;;4.05;;
26620;SDS011;14253;44.840;10.444;2023-04-25T05:22:33;5.32;;;3.35;;
26620;SDS011;14253;44.840;10.444;2023-04-25T05:25:09;4.57;;;3.72;;
26620;SDS011;14253;44.840;10.444;2023-04-25T05:27:58;5.07;;;3.83;;
26620;SDS011;14253;44.840;10.444;2023-04-25T05:30:48;7.22;;;3.97;;
26620;SDS011;14253;44.840;10.444;2023-04-25T05:33:17;10.75;;;4.13;;
26620;SDS011;14253;44.840;10.444;2023-04-25T05:35:44;6.22;;;4.20;;
26620;SDS011;14253;44.840;10.444;2023-04-25T05:38:11;7.95;;;3.55;;
26620;SDS011;14253;44.840;10.444;2023-04-25T05:40:55;5.57;;;3.58;;
26620;SDS011;14253;44.840;10.444;2023-04-25T05:43:56;6.78;;;4.00;;
26620;SDS011;14253;44.840;10.444;2023-04-25T05:46:48;8.13;;;4.25;;
26620;SDS011;14253;44.840;10.444;2023-04-25T05:49:23;13.30;;;4.78;;
26620;SDS011;14253;44.840;10.444;2023-04-25T05:52:01;7.93;;;4.18;;
26620;SDS011;14253;44.840;10.444;2023-04-25T05:54:30;7.72;;;3.88;;
26620;SDS011;14253;44.840;10.444;2023-04-25T05:56:56;7.93;;;4.00;;
26620;SDS011;14253;44.840;10.444;2023-04-25T05:59:23;6.30;;;3.63;;
26620;SDS011;14253;44.840;10.444;2023-04-25T06:01:49;10.13;;;4.40;;
26620;SDS011;14253;44.840;10.444;2023-04-25T06:04:15;5.75;;;4.00;;
26620;SDS011;14253;44.840;10.444;2023-04-25T06:06:41;7.40;;;4.00;;
26620;SDS011;14253;44.840;10.444;2023-04-25T06:09:07;10.63;;;4.03;;
26620;SDS011;14253;44.840;10.444;2023-04-25T06:11:33;6.85;;;3.72;;
26620;SDS011;14253;44.840;10.444;2023-04-25T06:13:59;5.32;;;4.22;;
26620;SDS011;14253;44.840;10.444;2023-04-25T06:16:25;6.25;;;2.92;;
26620;SDS011;14253;44.840;10.444;2023-04-25T06:18:52;5.43;;;3.60;;
26620;SDS011;14253;44.840;10.444;2023-04-25T06:21:18;5.53;;;3.45;;
26620;SDS011;14253;44.840;10.444;2023-04-25T06:23:44;9.77;;;4.28;;
26620;SDS011;14253;44.840;10.444;2023-04-25T06:26:16;12.25;;;3.58;;
26620;SDS011;14253;44.840;10.444;2023-04-25T06:28:44;8.40;;;3.50;;
26620;SDS011;14253;44.840;10.444;2023-04-25T06:31:10;5.38;;;3.80;;
26620;SDS011;14253;44.840;10.444;2023-04-25T06:33:38;7.30;;;3.85;;
26620;SDS011;14253;44.840;10.444;2023-04-25T06:36:04;5.50;;;3.55;;
26620;SDS011;14253;44.840;10.444;2023-04-25T06:38:30;7.80;;;3.42;;
26620;SDS011;14253;44.840;10.444;2023-04-25T06:40:57;8.10;;;3.53;;
26620;SDS011;14253;44.840;10.444;2023-04-25T06:43:24;6.95;;;3.30;;
26620;SDS011;14253;44.840;10.444;2023-04-25T06:46:09;6.22;;;3.10;;
26620;SDS011;14253;44.840;10.444;2023-04-25T06:48:41;5.93;;;3.08;;
26620;SDS011;14253;44.840;10.444;2023-04-25T06:51:07;8.50;;;3.10;;
26620;SDS011;14253;44.840;10.444;2023-04-25T06:53:35;4.68;;;3.08;;
26620;SDS011;14253;44.840;10.444;2023-04-25T06:56:04;7.68;;;2.97;;
26620;SDS011;14253;44.840;10.444;2023-04-25T06:58:49;5.80;;;2.97;;
26620;SDS011;14253;44.840;10.444;2023-04-25T07:01:29;4.43;;;3.10;;
26620;SDS011;14253;44.840;10.444;2023-04-25T07:03:56;6.32;;;3.00;;
26620;SDS011;14253;44.840;10.444;2023-04-25T07:06:25;9.85;;;6.30;;
26620;SDS011;14253;44.840;10.444;2023-04-25T07:08:54;9.55;;;6.85;;
26620;SDS011;14253;44.840;10.444;2023-04-25T07:11:22;17.38;;;13.90;;
26620;SDS011;14253;44.840;10.444;2023-04-25T07:13:48;11.25;;;6.65;;
26620;SDS011;14253;44.840;10.444;2023-04-25T07:16:14;8.82;;;4.55;;
26620;SDS011;14253;44.840;10.444;2023-04-25T07:18:40;8.90;;;3.67;;
26620;SDS011;14253;44.840;10.444;2023-04-25T07:21:05;5.60;;;3.67;;
26620;SDS011;14253;44.840;10.444;2023-04-25T07:23:33;7.25;;;3.45;;
26620;SDS011;14253;44.840;10.444;2023-04-25T07:26:05;6.05;;;3.30;;
26620;SDS011;14253;44.840;10.444;2023-04-25T07:28:32;8.50;;;3.40;;
26620;SDS011;14253;44.840;10.444;2023-04-25T07:30:57;5.00;;;2.10;;
26620;SDS011;14253;44.840;10.444;2023-04-25T07:33:24;6.00;;;1.63;;
26620;SDS011;14253;44.840;10.444;2023-04-25T07:35:49;1.65;;;0.95;;
26620;SDS011;14253;44.840;10.444;2023-04-25T07:38:16;0.47;;;0.43;;
26620;SDS011;14253;44.840;10.444;2023-04-25T07:40:42;0.90;;;0.32;;
26620;SDS011;14253;44.840;10.444;2023-04-25T07:43:10;2.60;;;0.52;;
26620;SDS011;14253;44.840;10.444;2023-04-25T07:45:47;1.17;;;0.50;;
26620;SDS011;14253;44.840;10.444;2023-04-25T07:48:18;0.90;;;0.68;;
26620;SDS011;14253;44.840;10.444;2023-04-25T07:50:45;1.27;;;0.40;;
26620;SDS011;14253;44.840;10.444;2023-04-25T07:53:11;1.45;;;0.30;;
26620;SDS011;14253;44.840;10.444;2023-04-25T07:55:45;1.75;;;0.50;;
26620;SDS011;14253;44.840;10.444;2023-04-25T07:58:14;5.28;;;1.02;;
26620;SDS011;14253;44.840;10.444;2023-04-25T08:00:43;6.05;;;0.80;;
26620;SDS011;14253;44.840;10.444;2023-04-25T08:03:33;1.33;;;0.50;;
26620;SDS011;14253;44.840;10.444;2023-04-25T08:06:00;1.08;;;0.60;;
26620;SDS011;14253;44.840;10.444;2023-04-25T08:08:30;0.73;;;0.40;;
26620;SDS011;14253;44.840;10.444;2023-04-25T08:10:56;0.80;;;0.30;;
26620;SDS011;14253;44.840;10.444;2023-04-25T08:13:22;1.15;;;0.30;;
26620;SDS011;14253;44.840;10.444;2023-04-25T08:15:48;0.47;;;0.30;;
26620;SDS011;14253;44.840;10.444;2023-04-25T08:18:13;0.80;;;0.30;;
26620;SDS011;14253;44.840;10.444;2023-04-25T08:20:41;1.02;;;0.38;;
26620;SDS011;14253;44.840;10.444;2023-04-25T08:23:09;0.80;;;0.63;;
26620;SDS011;14253;44.840;10.444;2023-04-25T08:25:46;1.85;;;0.63;;
26620;SDS011;14253;44.840;10.444;2023-04-25T08:28:14;0.47;;;0.40;;
26620;SDS011;14253;44.840;10.444;2023-04-25T08:30:42;1.20;;;0.50;;
26620;SDS011;14253;44.840;10.444;2023-04-25T08:33:11;2.10;;;0.38;;
26620;SDS011;14253;44.840;10.444;2023-04-25T08:35:57;0.28;;;0.20;;
26620;SDS011;14253;44.840;10.444;2023-04-25T08:38:24;5.40;;;2.88;;
26620;SDS011;14253;44.840;10.444;2023-04-25T08:40:52;0.52;;;0.30;;
26620;SDS011;14253;44.840;10.444;2023-04-25T08:43:20;1.52;;;0.40;;
26620;SDS011;14253;44.840;10.444;2023-04-25T08:45:47;4.45;;;0.40;;
26620;SDS011;14253;44.840;10.444;2023-04-25T08:48:32;0.88;;;0.20;;
26620;SDS011;14253;44.840;10.444;2023-04-25T08:51:01;4.00;;;0.40;;
26620;SDS011;14253;44.840;10.444;2023-04-25T08:53:29;0.93;;;0.38;;
26620;SDS011;14253;44.840;10.444;2023-04-25T08:55:59;3.17;;;0.43;;
26620;SDS011;14253;44.840;10.444;2023-04-25T08:58:33;0.75;;;0.40;;
26620;SDS011;14253;44.840;10.444;2023-04-25T09:01:00;0.55;;;0.40;;
26620;SDS011;14253;44.840;10.444;2023-04-25T09:03:28;4.25;;;1.67;;
26620;SDS011;14253;44.840;10.444;2023-04-25T09:05:55;3.08;;;1.58;;
26620;SDS011;14253;44.840;10.444;2023-04-25T09:08:21;3.83;;;2.33;;
26620;SDS011;14253;44.840;10.444;2023-04-25T09:10:47;1.83;;;1.02;;
26620;SDS011;14253;44.840;10.444;2023-04-25T09:13:13;1.20;;;0.30;;
26620;SDS011;14253;44.840;10.444;2023-04-25T09:16:07;0.77;;;0.28;;
26620;SDS011;14253;44.840;10.444;2023-04-25T09:18:44;6.97;;;3.97;;
26620;SDS011;14253;44.840;10.444;2023-04-25T09:21:13;6.53;;;4.47;;
26620;SDS011;14253;44.840;10.444;2023-04-25T09:23:44;8.20;;;5.03;;
26620;SDS011;14253;44.840;10.444;2023-04-25T09:26:16;5.25;;;3.45;;
26620;SDS011;14253;44.840;10.444;2023-04-25T09:28:46;4.65;;;0.60;;
26620;SDS011;14253;44.840;10.444;2023-04-25T09:31:24;1.10;;;0.50;;
26620;SDS011;14253;44.840;10.444;2023-04-25T09:33:59;3.05;;;0.93;;
26620;SDS011;14253;44.840;10.444;2023-04-25T09:36:27;2.28;;;0.90;;
26620;SDS011;14253;44.840;10.444;2023-04-25T09:39:14;0.63;;;0.30;;
26620;SDS011;14253;44.840;10.444;2023-04-25T09:41:43;3.53;;;2.33;;
26620;SDS011;14253;44.840;10.444;2023-04-25T09:44:12;0.60;;;0.30;;
26620;SDS011;14253;44.840;10.444;2023-04-25T09:46:41;3.35;;;0.82;;
26620;SDS011;14253;44.840;10.444;2023-04-25T09:49:19;4.00;;;0.98;;
26620;SDS011;14253;44.840;10.444;2023-04-25T09:51:59;0.68;;;0.50;;
26620;SDS011;14253;44.840;10.444;2023-04-25T09:54:31;2.33;;;0.60;;
26620;SDS011;14253;44.840;10.444;2023-04-25T09:57:18;1.98;;;0.90;;
26620;SDS011;14253;44.840;10.444;2023-04-25T09:59:50;2.63;;;0.60;;
26620;SDS011;14253;44.840;10.444;2023-04-25T10:02:19;0.77;;;0.40;;
26620;SDS011;14253;44.840;10.444;2023-04-25T10:07:24;2.30;;;0.73;;
26620;SDS011;14253;44.840;10.444;2023-04-25T10:09:56;1.10;;;0.57;;
26620;SDS011;14253;44.840;10.444;2023-04-25T10:12:26;4.00;;;1.13;;
26620;SDS011;14253;44.840;10.444;2023-04-25T10:14:52;4.97;;;0.57;;
26620;SDS011;14253;44.840;10.444;2023-04-25T10:17:19;3.40;;;0.50;;
26620;SDS011;14253;44.840;10.444;2023-04-25T10:19:46;0.75;;;0.52;;
26620;SDS011;14253;44.840;10.444;2023-04-25T10:22:34;0.53;;;0.40;;
26620;SDS011;14253;44.840;10.444;2023-04-25T10:25:03;1.88;;;0.40;;
26620;SDS011;14253;44.840;10.444;2023-04-25T10:27:30;3.35;;;1.33;;
26620;SDS011;14253;44.840;10.444;2023-04-25T10:30:07;3.28;;;2.30;;
26620;SDS011;14253;44.840;10.444;2023-04-25T10:32:36;2.72;;;0.60;;
26620;SDS011;14253;44.840;10.444;2023-04-25T10:35:12;4.28;;;2.65;;
26620;SDS011;14253;44.840;10.444;2023-04-25T10:40:23;3.33;;;1.05;;
26620;SDS011;14253;44.840;10.444;2023-04-25T10:42:51;3.30;;;1.98;;
26620;SDS011;14253;44.840;10.444;2023-04-25T10:45:18;2.85;;;1.13;;
26620;SDS011;14253;44.840;10.444;2023-04-25T10:47:45;2.88;;;1.00;;
26620;SDS011;14253;44.840;10.444;2023-04-25T10:50:11;4.78;;;1.65;;
26620;SDS011;14253;44.840;10.444;2023-04-25T10:52:41;4.18;;;2.50;;
26620;SDS011;14253;44.840;10.444;2023-04-25T10:55:07;4.53;;;1.70;;
26620;SDS011;14253;44.840;10.444;2023-04-25T10:57:38;3.03;;;1.60;;
26620;SDS011;14253;44.840;10.444;2023-04-25T11:00:08;1.75;;;0.88;;
26620;SDS011;14253;44.840;10.444;2023-04-25T11:05:10;3.00;;;1.80;;
26620;SDS011;14253;44.840;10.444;2023-04-25T11:07:46;8.52;;;1.90;;
26620;SDS011;14253;44.840;10.444;2023-04-25T11:10:16;3.65;;;1.58;;
26620;SDS011;14253;44.840;10.444;2023-04-25T11:12:44;4.28;;;1.13;;
26620;SDS011;14253;44.840;10.444;2023-04-25T11:15:11;3.58;;;1.60;;
26620;SDS011;14253;44.840;10.444;2023-04-25T11:17:36;2.28;;;1.33;;
26620;SDS011;14253;44.840;10.444;2023-04-25T11:20:04;2.42;;;0.80;;
26620;SDS011;14253;44.840;10.444;2023-04-25T11:22:33;1.25;;;0.80;;
26620;SDS011;14253;44.840;10.444;2023-04-25T11:25:04;2.30;;;1.17;;
26620;SDS011;14253;44.840;10.444;2023-04-25T11:27:31;1.13;;;0.98;;
26620;SDS011;14253;44.840;10.444;2023-04-25T11:29:57;0.68;;;0.50;;
26620;SDS011;14253;44.840;10.444;2023-04-25T11:32:23;2.65;;;1.13;;
26620;SDS011;14253;44.840;10.444;2023-04-25T11:34:48;1.63;;;0.80;;
26620;SDS011;14253;44.840;10.444;2023-04-25T11:37:15;1.40;;;0.85;;
26620;SDS011;14253;44.840;10.444;2023-04-25T11:39:44;1.08;;;0.45;;
26620;SDS011;14253;44.840;10.444;2023-04-25T11:42:13;1.30;;;0.60;;
26620;SDS011;14253;44.840;10.444;2023-04-25T11:44:39;2.47;;;0.70;;
26620;SDS011;14253;44.840;10.444;2023-04-25T11:47:05;3.38;;;0.85;;
26620;SDS011;14253;44.840;10.444;2023-04-25T11:49:31;3.55;;;0.60;;
26620;SDS011;14253;44.840;10.444;2023-04-25T11:51:57;0.95;;;0.60;;
26620;SDS011;14253;44.840;10.444;2023-04-25T11:54:23;2.33;;;0.80;;
26620;SDS011;14253;44.840;10.444;2023-04-25T11:56:50;1.38;;;0.50;;
26620;SDS011;14253;44.840;10.444;2023-04-25T11:59:16;2.33;;;0.98;;
26620;SDS011;14253;44.840;10.444;2023-04-25T12:01:47;1.52;;;0.70;;
26620;SDS011;14253;44.840;10.444;2023-04-25T12:04:15;5.40;;;1.27;;
26620;SDS011;14253;44.840;10.444;2023-04-25T12:06:46;5.88;;;1.23;;
26620;SDS011;14253;44.840;10.444;2023-04-25T12:09:14;2.13;;;0.98;;
26620;SDS011;14253;44.840;10.444;2023-04-25T12:11:47;2.53;;;1.30;;
26620;SDS011;14253;44.840;10.444;2023-04-25T12:14:47;2.13;;;0.60;;
26620;SDS011;14253;44.840;10.444;2023-04-25T12:17:12;0.80;;;0.47;;
26620;SDS011;14253;44.840;10.444;2023-04-25T12:19:39;2.85;;;0.80;;
26620;SDS011;14253;44.840;10.444;2023-04-25T12:22:18;4.55;;;0.70;;
26620;SDS011;14253;44.840;10.444;2023-04-25T12:24:48;1.90;;;0.75;;
26620;SDS011;14253;44.840;10.444;2023-04-25T12:27:15;2.85;;;0.80;;
26620;SDS011;14253;44.840;10.444;2023-04-25T12:29:53;5.07;;;1.00;;
26620;SDS011;14253;44.840;10.444;2023-04-25T12:32:20;3.63;;;0.90;;
26620;SDS011;14253;44.840;10.444;2023-04-25T12:34:47;2.25;;;0.55;;
26620;SDS011;14253;44.840;10.444;2023-04-25T12:37:13;1.35;;;0.70;;
26620;SDS011;14253;44.840;10.444;2023-04-25T12:39:39;2.47;;;0.63;;
26620;SDS011;14253;44.840;10.444;2023-04-25T12:42:05;1.23;;;0.50;;
26620;SDS011;14253;44.840;10.444;2023-04-25T12:44:33;4.85;;;0.70;;
26620;SDS011;14253;44.840;10.444;2023-04-25T12:47:00;3.72;;;0.52;;
26620;SDS011;14253;44.840;10.444;2023-04-25T12:49:26;1.73;;;0.52;;
26620;SDS011;14253;44.840;10.444;2023-04-25T12:51:52;1.10;;;0.57;;
26620;SDS011;14253;44.840;10.444;2023-04-25T12:54:17;4.20;;;0.60;;
26620;SDS011;14253;44.840;10.444;2023-04-25T12:56:43;2.28;;;0.85;;
26620;SDS011;14253;44.840;10.444;2023-04-25T12:59:09;6.65;;;1.90;;
26620;SDS011;14253;44.840;10.444;2023-04-25T13:01:36;5.72;;;0.60;;
26620;SDS011;14253;44.840;10.444;2023-04-25T13:04:02;2.22;;;0.82;;
26620;SDS011;14253;44.840;10.444;2023-04-25T13:06:28;0.85;;;0.50;;
26620;SDS011;14253;44.840;10.444;2023-04-25T13:08:56;3.25;;;0.70;;
26620;SDS011;14253;44.840;10.444;2023-04-25T13:11:21;3.20;;;0.70;;
26620;SDS011;14253;44.840;10.444;2023-04-25T13:13:47;2.72;;;0.65;;
26620;SDS011;14253;44.840;10.444;2023-04-25T13:16:13;2.58;;;0.85;;
26620;SDS011;14253;44.840;10.444;2023-04-25T13:18:39;4.13;;;1.00;;
26620;SDS011;14253;44.840;10.444;2023-04-25T13:21:06;0.50;;;0.40;;
26620;SDS011;14253;44.840;10.444;2023-04-25T13:23:33;4.40;;;0.73;;
26620;SDS011;14253;44.840;10.444;2023-04-25T13:25:59;4.57;;;0.70;;
26620;SDS011;14253;44.840;10.444;2023-04-25T13:28:27;1.88;;;0.75;;
26620;SDS011;14253;44.840;10.444;2023-04-25T13:30:53;0.73;;;0.52;;
26620;SDS011;14253;44.840;10.444;2023-04-25T13:33:19;1.58;;;0.80;;
26620;SDS011;14253;44.840;10.444;2023-04-25T13:35:47;1.52;;;0.60;;
26620;SDS011;14253;44.840;10.444;2023-04-25T13:38:20;3.30;;;0.77;;
26620;SDS011;14253;44.840;10.444;2023-04-25T13:40:47;5.28;;;0.77;;
26620;SDS011;14253;44.840;10.444;2023-04-25T13:43:14;2.08;;;1.05;;
26620;SDS011;14253;44.840;10.444;2023-04-25T13:45:40;3.60;;;0.80;;
26620;SDS011;14253;44.840;10.444;2023-04-25T13:48:06;2.05;;;0.73;;
26620;SDS011;14253;44.840;10.444;2023-04-25T13:50:32;3.58;;;0.80;;
26620;SDS011;14253;44.840;10.444;2023-04-25T13:52:58;1.58;;;0.73;;
26620;SDS011;14253;44.840;10.444;2023-04-25T13:55:25;2.67;;;0.80;;
26620;SDS011;14253;44.840;10.444;2023-04-25T13:57:51;0.82;;;0.60;;
26620;SDS011;14253;44.840;10.444;2023-04-25T14:00:17;3.65;;;1.25;;
26620;SDS011;14253;44.840;10.444;2023-04-25T14:02:43;1.15;;;0.60;;
26620;SDS011;14253;44.840;10.444;2023-04-25T14:05:09;1.08;;;0.47;;
26620;SDS011;14253;44.840;10.444;2023-04-25T14:07:36;3.55;;;1.02;;
26620;SDS011;14253;44.840;10.444;2023-04-25T14:10:02;2.25;;;0.75;;
26620;SDS011;14253;44.840;10.444;2023-04-25T14:12:29;3.97;;;0.80;;
26620;SDS011;14253;44.840;10.444;2023-04-25T14:14:55;1.48;;;0.80;;
26620;SDS011;14253;44.840;10.444;2023-04-25T14:17:21;2.72;;;0.60;;
26620;SDS011;14253;44.840;10.444;2023-04-25T14:19:49;1.38;;;0.80;;
26620;SDS011;14253;44.840;10.444;2023-04-25T14:22:15;2.00;;;0.70;;
26620;SDS011;14253;44.840;10.444;2023-04-25T14:24:41;1.13;;;0.60;;
26620;SDS011;14253;44.840;10.444;2023-04-25T14:27:07;1.15;;;0.80;;
26620;SDS011;14253;44.840;10.444;2023-04-25T14:29:33;0.85;;;0.68;;
26620;SDS011;14253;44.840;10.444;2023-04-25T14:31:59;1.55;;;0.50;;
26620;SDS011;14253;44.840;10.444;2023-04-25T14:34:25;1.33;;;0.45;;
26620;SDS011;14253;44.840;10.444;2023-04-25T14:36:52;1.00;;;0.63;;
26620;SDS011;14253;44.840;10.444;2023-04-25T14:39:18;1.40;;;0.80;;
26620;SDS011;14253;44.840;10.444;2023-04-25T14:41:44;1.50;;;0.63;;
26620;SDS011;14253;44.840;10.444;2023-04-25T14:44:10;2.72;;;0.65;;
26620;SDS011;14253;44.840;10.444;2023-04-25T14:46:36;1.25;;;0.75;;
26620;SDS011;14253;44.840;10.444;2023-04-25T14:49:02;1.17;;;0.73;;
26620;SDS011;14253;44.840;10.444;2023-04-25T14:51:28;2.95;;;1.10;;
26620;SDS011;14253;44.840;10.444;2023-04-25T14:53:56;2.20;;;1.00;;
26620;SDS011;14253;44.840;10.444;2023-04-25T14:56:22;2.85;;;1.10;;
26620;SDS011;14253;44.840;10.444;2023-04-25T14:58:48;1.65;;;0.80;;